Aérodrome :
LOGIN :

S'inscrire | Disclaimer

   EN    FR    IT 

 










Légende :    VFR   VFR Marginal   IFR   IFR Intensif   IFR Très Intensif
Visi : 
Plafond : 
>= 8 km
>= 3000ft
5 à 8 km
1000 à 3000 ft
1500m à 5 km
500 à 1000 ft
800 à 1500m
200 à 500 ft
< 800m
< 200 ft
Symboles :   Orages  Brouillard  Fortes neiges  Fortes précipitations  Vent > 20 kt
SIGMETs :   Divers  Orages  Givrage  Turbulence  Onde Orograph.  Cendres Volcan.







- Altitude de l'aérodrome : 135 ft
- Code IATA : EDI
- Voir les cartes d'approche


EGPH - Edinburgh

DERNIER METAR :
  • 191020Z AUTO 25006KT 9999 NCD 03/00 Q1022

METARs EXPIRÉS :
  • 190950Z 25005KT CAVOK 01/M00 Q1022
  • 190920Z 25005KT CAVOK 00/M01 Q1022
  • 190850Z 25005KT CAVOK M01/M02 Q1022
  • 190820Z 25004KT CAVOK M01/M03 Q1022
  • 190750Z VRB03KT CAVOK M00/M02 Q1022

TAF TAF EGPH
Valide du 19 à 06h jusqu'au 20 à 06h UTC


190455Z 1906/2006 24005KT CAVOK
BECMG 1916/1919 BKN025
TEMPO 1917/1920 8000 -RA
TEMPO 1920/2006 6000 RA BKN012
PROB30
TEMPO 2003/2006 4000 +RA BKN006
ATIS : +44 131 339 2823
Pas de NOTAMs connus pour ce terrain.



MET'MAP, la Météo Aéronautique d'un coup d'oeil ! - Copyright ORBIFLY Décembre 2007 - Disclaimer

ORBIFLY MET'MAP TEAM :

Programmation & Développement : Alexandra Zaïnal
Conception & Développement : Baudouin d'Aumeries
Co-Programmation & Développement : Marc-Olivier Méhu
Soutien technique & logistique : Manuel Goepfert

Contact : metmap@orbifly.com




SOURCES & CREDITS :

   NOAA